Time;durP1;ratioP1;P1;durP2;ratioP2;P2;SDS_P1;SDS_P2;PMS_P1;PMS_P2;Temp;Humidity;BMP_temperature;BMP_pressure;BME280_temperature;BME280_humidity;BME280_pressure;Samples;Min_cycle;Max_cycle;Signal;HPM_P1;HPM_P2
2023/06/30 00:03:07;;;;;;;2.78;2.40;;;;;;;19.24;89.65;101095.38;6075976;29;20284;-67
2023/06/30 00:06:29;;;;;;;2.47;1.92;;;;;;;19.60;90.05;101101.00;6071772;28;20243;-67
2023/06/30 00:09:52;;;;;;;2.38;2.17;;;;;;;19.76;89.80;101096.16;6080370;28;20257;-65
2023/06/30 00:13:12;;;;;;;2.25;1.83;;;;;;;19.70;89.29;101101.53;6070434;28;20244;-65
2023/06/30 00:16:33;;;;;;;1.13;1.02;;;;;;;19.80;89.20;101100.22;6077242;28;20244;-66
2023/06/30 00:19:57;;;;;;;1.13;1.02;;;;;;;19.73;88.72;101104.75;6079916;28;20228;-65
2023/06/30 00:23:20;;;;;;;1.40;1.30;;;;;;;19.63;88.31;101095.16;6085180;28;20248;-66
2023/06/30 00:26:42;;;;;;;1.27;1.08;;;;;;;19.69;88.64;101097.13;6071436;28;20317;-65
2023/06/30 00:30:06;;;;;;;1.60;1.35;;;;;;;19.78;88.57;101091.34;6073624;29;20236;-65
2023/06/30 00:33:28;;;;;;;4.10;1.30;;;;;;;19.75;88.13;101099.97;6077378;28;20244;-65
2023/06/30 00:36:48;;;;;;;1.50;1.20;;;;;;;19.37;88.61;101083.81;6084007;29;20639;-65
2023/06/30 00:40:11;;;;;;;1.98;1.33;;;;;;;19.51;88.92;101080.22;6083386;29;20321;-65
2023/06/30 00:43:33;;;;;;;1.77;0.98;;;;;;;19.49;88.87;101074.09;6081160;28;20478;-64
2023/06/30 00:46:54;;;;;;;2.65;1.50;;;;;;;19.49;88.93;101083.16;6086595;28;20231;-65
2023/06/30 00:50:18;;;;;;;1.55;1.05;;;;;;;19.56;89.27;101086.00;6075299;28;20248;-65
2023/06/30 00:53:40;;;;;;;2.95;1.70;;;;;;;19.75;89.02;101077.22;6090572;29;20237;-65
2023/06/30 00:57:07;;;;;;;1.88;1.40;;;;;;;19.73;88.65;101080.13;6071738;29;20603;-65
2023/06/30 01:00:30;;;;;;;0.80;0.77;;;;;;;19.57;89.01;101082.19;6067688;28;20500;-64
2023/06/30 01:03:59;;;;;;;2.55;1.38;;;;;;;19.61;89.25;101086.28;6090642;29;20240;-65
2023/06/30 01:07:26;;;;;;;2.50;1.20;;;;;;;19.53;89.33;101080.88;6065072;28;20243;-65
2023/06/30 01:10:49;;;;;;;1.65;1.10;;;;;;;19.52;89.03;101090.16;6075697;28;20715;-65
2023/06/30 01:14:11;;;;;;;3.42;1.50;;;;;;;19.52;89.18;101095.63;6085981;28;20247;-65
2023/06/30 01:17:34;;;;;;;7.05;1.92;;;;;;;19.44;89.33;101082.88;6079569;28;20490;-64
2023/06/30 01:20:59;;;;;;;3.78;1.70;;;;;;;19.39;89.52;101087.22;6063588;29;20228;-65
2023/06/30 01:24:25;;;;;;;2.35;1.58;;;;;;;19.37;89.71;101084.66;6076874;29;20527;-64
2023/06/30 01:27:46;;;;;;;3.33;1.98;;;;;;;19.26;89.85;101097.91;6080895;29;20228;-65
2023/06/30 01:31:09;;;;;;;1.90;1.35;;;;;;;19.56;90.13;101083.25;6074139;28;20228;-65
2023/06/30 01:34:31;;;;;;;2.75;1.60;;;;;;;19.62;89.13;101079.75;6085573;28;20710;-65
2023/06/30 01:37:52;;;;;;;9.68;2.25;;;;;;;19.54;88.80;101082.59;6067407;29;20244;-64
2023/06/30 01:41:14;;;;;;;10.20;2.67;;;;;;;19.41;89.24;101080.53;6094113;28;20231;-65
2023/06/30 01:44:36;;;;;;;1.92;1.50;;;;;;;19.30;89.35;101082.81;6087032;29;20709;-65
2023/06/30 01:47:58;;;;;;;2.95;1.83;;;;;;;19.23;89.27;101079.16;6083814;28;20233;-64
2023/06/30 01:51:20;;;;;;;3.60;1.65;;;;;;;19.29;89.83;101083.88;6075176;28;20224;-64
2023/06/30 01:54:41;;;;;;;2.70;2.45;;;;;;;19.15;89.96;101083.66;6081606;28;20236;-65
2023/06/30 01:58:03;;;;;;;1.90;1.70;;;;;;;19.08;90.15;101081.88;6069575;29;20237;-65
2023/06/30 02:01:24;;;;;;;3.45;1.90;;;;;;;19.30;90.00;101089.16;6071441;29;20228;-65
2023/06/30 02:04:45;;;;;;;1.77;1.67;;;;;;;19.22;89.88;101089.25;6083655;28;20240;-65
2023/06/30 02:08:07;;;;;;;8.32;2.00;;;;;;;19.06;89.76;101082.06;6081767;28;20232;-65
2023/06/30 02:11:28;;;;;;;1.80;1.45;;;;;;;19.08;89.82;101069.06;6082395;28;20239;-66
2023/06/30 02:14:49;;;;;;;4.20;1.75;;;;;;;19.16;90.21;101059.91;6082690;28;20240;-65
2023/06/30 02:18:09;;;;;;;3.90;1.77;;;;;;;19.43;89.70;101055.72;6071961;28;20512;-64
2023/06/30 02:21:30;;;;;;;1.88;1.33;;;;;;;19.07;89.17;101067.34;6087539;28;20244;-64
2023/06/30 02:24:53;;;;;;;3.15;1.95;;;;;;;19.24;89.29;101075.38;6076528;28;20299;-65
2023/06/30 02:28:16;;;;;;;2.15;1.45;;;;;;;19.26;88.99;101076.03;6054094;29;20224;-65
2023/06/30 02:31:37;;;;;;;3.40;1.83;;;;;;;19.22;89.00;101077.44;6078083;28;20231;-65
2023/06/30 02:34:58;;;;;;;2.05;1.80;;;;;;;19.22;88.84;101083.78;6080557;29;22530;-65
2023/06/30 02:38:20;;;;;;;4.30;2.08;;;;;;;19.35;88.43;101089.47;6061349;28;20471;-64
2023/06/30 02:41:42;;;;;;;1.67;1.52;;;;;;;19.13;88.26;101091.22;6073402;28;20240;-64
2023/06/30 02:45:04;;;;;;;3.47;2.08;;;;;;;19.26;88.33;101093.28;6083063;28;20240;-63
2023/06/30 02:48:26;;;;;;;2.05;1.65;;;;;;;19.26;88.02;101095.19;6076814;28;20416;-64
2023/06/30 02:51:47;;;;;;;5.32;2.88;;;;;;;19.41;87.47;101091.47;6066359;29;20231;-64
2023/06/30 02:55:08;;;;;;;2.13;1.80;;;;;;;19.28;87.31;101095.84;6078242;28;20237;-65
2023/06/30 02:58:35;;;;;;;4.88;3.78;;;;;;;19.27;87.47;101096.88;6077292;28;20281;-64
2023/06/30 03:01:58;;;;;;;5.05;1.55;;;;;;;19.13;87.07;101093.94;6071204;29;20239;-65
2023/06/30 03:05:20;;;;;;;1.30;1.20;;;;;;;19.08;87.17;101103.75;6081062;28;20255;-65
2023/06/30 03:08:40;;;;;;;1.52;1.40;;;;;;;19.19;86.53;101100.56;6081537;29;20240;-65
2023/06/30 03:12:01;;;;;;;3.25;1.73;;;;;;;19.29;86.24;101094.81;6072118;29;20236;-64
2023/06/30 03:15:25;;;;;;;1.40;1.30;;;;;;;19.16;85.76;101103.66;6074379;28;20788;-65
2023/06/30 03:18:46;;;;;;;1.42;1.23;;;;;;;19.21;85.28;101094.91;6083213;28;20554;-65
2023/06/30 03:22:07;;;;;;;3.63;1.90;;;;;;;19.19;85.43;101088.78;6075588;28;20255;-65
2023/06/30 03:25:28;;;;;;;2.92;1.60;;;;;;;19.38;84.70;101093.72;6067128;28;20232;-64
2023/06/30 03:28:49;;;;;;;2.33;1.33;;;;;;;19.24;84.54;101097.25;6078654;28;20232;-65
2023/06/30 03:32:11;;;;;;;1.45;1.35;;;;;;;18.93;84.91;101087.31;6065216;29;20232;-64
2023/06/30 03:35:32;;;;;;;3.58;2.10;;;;;;;19.13;85.53;101090.34;6071939;28;20319;-65
2023/06/30 03:38:53;;;;;;;2.72;2.08;;;;;;;19.09;85.53;101086.28;6088679;28;20237;-64
2023/06/30 03:42:14;;;;;;;2.10;1.90;;;;;;;19.22;85.08;101091.13;6090026;28;20228;-64
2023/06/30 03:45:35;;;;;;;1.35;1.25;;;;;;;19.15;84.95;101094.59;6073124;28;20241;-65
2023/06/30 03:48:58;;;;;;;1.95;1.65;;;;;;;19.11;84.85;101081.50;6074117;29;20237;-65
2023/06/30 03:52:19;;;;;;;3.90;1.70;;;;;;;19.02;84.91;101069.78;6066808;28;20248;-65
2023/06/30 03:55:39;;;;;;;2.63;1.15;;;;;;;19.23;85.03;101071.81;6084623;29;20228;-64
2023/06/30 03:59:00;;;;;;;4.53;3.15;;;;;;;19.29;84.72;101072.94;6075302;29;20241;-64
2023/06/30 04:02:21;;;;;;;1.88;1.73;;;;;;;19.16;84.87;101073.59;6080502;28;20549;-65
2023/06/30 04:05:44;;;;;;;3.67;1.73;;;;;;;19.36;84.72;101068.47;6067150;29;20240;-65
2023/06/30 04:09:05;;;;;;;3.15;1.75;;;;;;;19.36;84.48;101066.56;6085316;28;20233;-65
2023/06/30 04:12:25;;;;;;;5.20;1.55;;;;;;;19.10;84.30;101079.81;6082960;29;20319;-65
2023/06/30 04:15:46;;;;;;;2.05;1.45;;;;;;;19.31;84.61;101070.88;6071878;29;20232;-64
2023/06/30 04:19:07;;;;;;;11.13;10.13;;;;;;;19.38;84.50;101075.41;6088542;29;20240;-65
2023/06/30 04:22:29;;;;;;;8.63;7.60;;;;;;;19.34;84.66;101065.91;6084452;28;20232;-65
2023/06/30 04:25:50;;;;;;;3.17;2.88;;;;;;;19.43;84.56;101067.50;6073764;28;20657;-66
2023/06/30 04:29:11;;;;;;;5.68;2.33;;;;;;;19.21;84.75;101075.75;6082905;28;20331;-65
2023/06/30 04:32:31;;;;;;;1.50;1.40;;;;;;;19.22;84.72;101083.78;6086186;28;20232;-66
2023/06/30 04:35:52;;;;;;;10.00;2.00;;;;;;;19.33;84.99;101082.47;6077330;28;20228;-65
2023/06/30 04:39:14;;;;;;;2.10;1.52;;;;;;;19.35;85.04;101085.88;6091079;29;20286;-66
2023/06/30 04:42:35;;;;;;;4.82;2.28;;;;;;;19.43;85.09;101083.91;6078854;28;20881;-65
2023/06/30 04:45:57;;;;;;;1.55;1.45;;;;;;;19.50;85.01;101081.28;6079633;28;20228;-65
2023/06/30 04:49:18;;;;;;;2.85;1.70;;;;;;;19.52;84.06;101088.28;6092525;29;20624;-65
2023/06/30 04:52:38;;;;;;;1.60;0.80;;;;;;;19.80;83.27;101091.16;6087981;28;20236;-65
2023/06/30 04:56:01;;;;;;;1.58;0.82;;;;;;;19.88;82.29;101096.50;6073509;28;20259;-65
2023/06/30 04:59:22;;;;;;;2.00;1.00;;;;;;;19.80;81.56;101094.75;6086928;28;20646;-65
2023/06/30 05:02:42;;;;;;;0.90;0.80;;;;;;;19.76;81.92;101103.50;6075423;28;20260;-64
2023/06/30 05:06:04;;;;;;;1.25;1.15;;;;;;;19.70;82.45;101090.59;6076276;28;20269;-65
2023/06/30 05:09:25;;;;;;;2.45;1.35;;;;;;;19.63;82.56;101089.69;6087596;28;20240;-66
2023/06/30 05:12:48;;;;;;;1.33;1.00;;;;;;;19.54;83.33;101088.94;6083006;28;20240;-65
2023/06/30 05:16:11;;;;;;;2.47;1.35;;;;;;;19.60;83.68;101099.09;6075184;28;20546;-65
2023/06/30 05:19:32;;;;;;;1.73;1.23;;;;;;;19.57;84.16;101104.09;6085140;28;20784;-64
2023/06/30 05:22:53;;;;;;;1.23;1.08;;;;;;;19.55;84.22;101114.38;6074290;28;20228;-65
2023/06/30 05:26:14;;;;;;;1.63;1.30;;;;;;;19.53;83.92;101111.81;6074732;28;20231;-66
2023/06/30 05:29:36;;;;;;;2.90;1.40;;;;;;;19.54;84.24;101109.94;6078079;28;20236;-65
2023/06/30 05:32:57;;;;;;;2.33;1.38;;;;;;;19.33;84.78;101107.06;6078524;28;20224;-66
2023/06/30 05:36:18;;;;;;;1.10;1.00;;;;;;;19.43;85.05;101110.41;6066471;28;20227;-65
2023/06/30 05:39:39;;;;;;;3.42;1.35;;;;;;;19.39;84.91;101112.69;6084056;28;20240;-64
2023/06/30 05:42:59;;;;;;;3.38;2.13;;;;;;;19.33;85.27;101113.41;6080565;28;20722;-64
2023/06/30 05:46:21;;;;;;;6.03;1.80;;;;;;;19.35;85.55;101108.63;6061049;29;20237;-70
2023/06/30 05:49:42;;;;;;;1.85;1.50;;;;;;;19.13;85.85;101095.81;6078888;28;20240;-70
2023/06/30 05:53:04;;;;;;;2.33;1.52;;;;;;;19.06;86.07;101098.47;6085570;28;20253;-70
2023/06/30 05:56:25;;;;;;;2.88;1.38;;;;;;;19.24;85.76;101097.25;6080177;28;20233;-70
2023/06/30 05:59:48;;;;;;;1.70;1.45;;;;;;;19.20;85.56;101104.13;6078363;29;20327;-71
2023/06/30 06:03:10;;;;;;;3.05;1.58;;;;;;;19.28;85.28;101107.63;6083542;28;20326;-72
2023/06/30 06:06:31;;;;;;;1.55;1.42;;;;;;;19.31;85.02;101095.47;6079620;28;20239;-70
2023/06/30 06:09:52;;;;;;;1.30;1.15;;;;;;;19.22;84.99;101093.84;6080837;28;20268;-71
2023/06/30 06:13:13;;;;;;;3.97;2.05;;;;;;;19.24;85.31;101108.19;6074045;28;20750;-69
2023/06/30 06:16:34;;;;;;;2.08;1.00;;;;;;;18.99;85.38;101105.69;6062266;28;20668;-70
2023/06/30 06:19:57;;;;;;;2.60;2.40;;;;;;;19.24;85.47;101113.66;6058747;28;20236;-70
2023/06/30 06:23:18;;;;;;;1.48;1.20;;;;;;;19.41;85.17;101110.59;6058701;29;20705;-71
2023/06/30 06:26:39;;;;;;;3.45;1.75;;;;;;;19.11;85.16;101115.13;6058206;28;20244;-70
2023/06/30 06:30:00;;;;;;;3.60;1.63;;;;;;;19.23;85.42;101118.28;6066123;29;20232;-70
2023/06/30 06:33:21;;;;;;;2.28;1.40;;;;;;;19.12;85.23;101119.59;6065853;29;20232;-71
2023/06/30 06:36:43;;;;;;;4.30;2.10;;;;;;;19.31;85.28;101125.56;6076442;29;20318;-71
2023/06/30 06:40:06;;;;;;;4.70;1.95;;;;;;;19.52;84.72;101128.44;6078959;29;20236;-69
2023/06/30 06:43:27;;;;;;;4.10;2.25;;;;;;;19.45;84.50;101127.47;6085881;28;20615;-70
2023/06/30 06:46:48;;;;;;;4.45;1.63;;;;;;;18.99;84.79;101129.44;6073609;28;20610;-70
2023/06/30 06:50:09;;;;;;;6.95;1.33;;;;;;;19.29;85.08;101133.09;6079309;29;20240;-71
2023/06/30 06:53:33;;;;;;;1.77;1.30;;;;;;;19.25;84.64;101134.50;6085741;29;20252;-70
2023/06/30 06:56:54;;;;;;;3.85;1.25;;;;;;;19.22;84.75;101135.72;6083046;28;20237;-69
2023/06/30 07:00:16;;;;;;;1.67;1.23;;;;;;;19.28;84.23;101140.44;6075627;28;20233;-70
2023/06/30 07:03:37;;;;;;;2.55;1.00;;;;;;;19.29;83.20;101142.16;6076210;29;20823;-67
2023/06/30 07:06:58;;;;;;;1.83;1.00;;;;;;;19.22;83.00;101137.59;6078680;28;20228;-70
2023/06/30 07:10:20;;;;;;;1.92;1.10;;;;;;;19.29;82.77;101142.16;6064082;28;20260;-71
2023/06/30 07:13:41;;;;;;;1.65;1.08;;;;;;;19.56;82.25;101152.50;6072593;29;20244;-71
2023/06/30 07:17:02;;;;;;;2.65;1.42;;;;;;;19.71;81.67;101153.31;6082289;28;20240;-70
2023/06/30 07:20:23;;;;;;;2.50;1.52;;;;;;;19.60;81.40;101159.28;6057302;28;20525;-69
2023/06/30 07:23:44;;;;;;;1.40;1.23;;;;;;;19.47;81.17;101160.97;6081873;29;22279;-68
2023/06/30 07:27:07;;;;;;;1.60;1.00;;;;;;;19.48;80.93;101169.00;6059224;29;20236;-68
2023/06/30 07:30:28;;;;;;;3.00;1.08;;;;;;;19.58;80.39;101171.44;6059097;29;20268;-68
2023/06/30 07:33:49;;;;;;;3.20;1.50;;;;;;;20.03;79.80;101171.25;6078890;29;20256;-68
2023/06/30 07:37:10;;;;;;;2.78;1.60;;;;;;;20.95;78.32;101173.19;6066343;28;20342;-68
2023/06/30 07:40:30;;;;;;;1.92;0.90;;;;;;;20.81;76.56;101168.63;6076336;28;20233;-66
2023/06/30 07:43:53;;;;;;;2.47;0.90;;;;;;;20.92;75.64;101168.13;6091895;29;20943;-69
2023/06/30 07:47:13;;;;;;;1.83;1.02;;;;;;;21.24;74.95;101169.47;6084464;28;20225;-69
2023/06/30 07:50:35;;;;;;;2.67;1.45;;;;;;;21.27;74.78;101161.72;6075844;28;20260;-68
2023/06/30 07:53:56;;;;;;;3.80;1.10;;;;;;;21.35;74.13;101161.56;6088827;28;20235;-66
2023/06/30 07:57:16;;;;;;;1.90;1.10;;;;;;;21.83;72.83;101167.19;6077033;28;20259;-68
2023/06/30 08:00:38;;;;;;;1.75;0.93;;;;;;;21.86;71.67;101167.63;6064247;28;20244;-68
2023/06/30 08:03:59;;;;;;;1.95;0.95;;;;;;;21.78;70.70;101170.50;6080509;29;20339;-67
2023/06/30 08:07:20;;;;;;;1.35;1.20;;;;;;;21.45;70.60;101161.22;6060497;29;20623;-66
2023/06/30 08:10:41;;;;;;;3.10;1.33;;;;;;;22.05;70.02;101166.09;6052251;28;20248;-67
2023/06/30 08:14:04;;;;;;;1.85;1.23;;;;;;;22.39;68.57;101157.75;6081570;29;20248;-68
2023/06/30 08:17:26;;;;;;;2.10;0.75;;;;;;;22.09;68.60;101168.19;6073165;29;20236;-65
2023/06/30 08:20:47;;;;;;;2.05;0.90;;;;;;;22.62;67.87;101163.78;6047435;28;20264;-66
2023/06/30 08:24:08;;;;;;;1.25;1.15;;;;;;;22.67;65.52;101153.03;6072503;29;20626;-68
2023/06/30 08:27:29;;;;;;;13.48;2.65;;;;;;;22.81;64.78;101160.22;6060987;29;20240;-66
2023/06/30 08:30:51;;;;;;;4.00;1.33;;;;;;;22.70;63.88;101155.34;6074969;28;20227;-66
2023/06/30 08:34:13;;;;;;;2.28;1.42;;;;;;;22.65;63.99;101163.38;6092878;29;20264;-67
2023/06/30 08:37:33;;;;;;;1.65;1.50;;;;;;;22.64;63.66;101153.44;6070710;29;20259;-69
2023/06/30 08:40:56;;;;;;;2.20;1.27;;;;;;;22.63;63.72;101161.88;6071447;28;20241;-66
2023/06/30 08:44:22;;;;;;;1.42;0.98;;;;;;;22.49;62.88;101146.38;6085201;29;20232;-67
2023/06/30 08:47:43;;;;;;;1.10;0.65;;;;;;;22.69;61.31;101150.06;6071156;28;20240;-67
2023/06/30 08:51:06;;;;;;;1.25;0.75;;;;;;;23.04;61.30;101146.09;6073944;28;20237;-66
2023/06/30 08:54:31;;;;;;;2.00;0.88;;;;;;;22.70;60.47;101159.97;6091670;29;20316;-67
2023/06/30 08:57:56;;;;;;;2.65;0.90;;;;;;;23.35;59.01;101148.22;6085195;28;20233;-67
2023/06/30 09:01:17;;;;;;;2.70;0.80;;;;;;;23.31;58.83;101146.91;6076819;28;20235;-67
2023/06/30 09:04:39;;;;;;;4.85;1.60;;;;;;;22.88;59.30;101160.25;6092841;28;20585;-67
2023/06/30 09:08:05;;;;;;;2.80;1.58;;;;;;;23.18;59.01;101145.03;6089836;28;20240;-68
2023/06/30 09:11:29;;;;;;;4.88;1.70;;;;;;;23.01;57.20;101143.75;6083837;28;20248;-66
2023/06/30 09:14:54;;;;;;;1.17;0.80;;;;;;;22.73;56.81;101135.69;6093026;28;20567;-67
2023/06/30 09:18:15;;;;;;;0.75;0.52;;;;;;;23.39;57.54;101136.59;6094299;28;20327;-67
2023/06/30 09:21:44;;;;;;;1.30;1.20;;;;;;;23.69;55.58;101137.81;6300838;27;20903;-66
2023/06/30 09:25:06;;;;;;;0.98;0.80;;;;;;;23.76;55.45;101140.56;6262066;28;20226;-67
2023/06/30 09:28:34;;;;;;;1.65;0.75;;;;;;;22.68;55.16;101137.34;6278294;28;20342;-67
2023/06/30 09:32:01;;;;;;;3.25;1.10;;;;;;;23.61;55.14;101148.22;6284120;28;20222;-67
2023/06/30 09:35:22;;;;;;;3.47;1.20;;;;;;;22.35;55.90;101141.88;6275757;28;20219;-67
2023/06/30 09:38:44;;;;;;;0.75;0.75;;;;;;;22.96;56.50;101138.03;6274176;28;20543;-67
2023/06/30 09:42:16;;;;;;;2.03;0.90;;;;;;;23.50;55.93;101135.94;6286284;28;20230;-68
2023/06/30 09:45:36;;;;;;;2.30;1.00;;;;;;;23.79;54.78;101142.88;6258307;28;20254;-68
2023/06/30 09:49:00;;;;;;;0.65;0.65;;;;;;;23.80;56.04;101142.63;6267266;28;20239;-67
2023/06/30 09:52:25;;;;;;;1.90;0.73;;;;;;;24.19;54.04;101149.13;6260714;28;20311;-67
2023/06/30 09:55:49;;;;;;;0.55;0.55;;;;;;;24.36;52.67;101145.66;6248936;28;20235;-67
2023/06/30 09:59:10;;;;;;;1.85;0.60;;;;;;;23.90;54.19;101150.47;6292047;28;20239;-67
2023/06/30 10:02:31;;;;;;;1.33;0.88;;;;;;;23.83;54.34;101141.38;6253968;28;20227;-67
2023/06/30 10:05:52;;;;;;;0.70;0.60;;;;;;;23.01;54.44;101141.00;6253374;28;20235;-66
2023/06/30 10:09:14;;;;;;;3.40;1.00;;;;;;;23.23;55.28;101136.13;6247824;28;20249;-66
2023/06/30 10:12:38;;;;;;;0.73;0.52;;;;;;;23.03;54.58;101134.22;6247697;28;20231;-67
2023/06/30 10:15:59;;;;;;;0.90;0.60;;;;;;;22.91;55.24;101135.91;6233259;28;20629;-66
2023/06/30 10:19:20;;;;;;;1.17;1.05;;;;;;;22.74;54.80;101134.63;6239118;28;20263;-67
2023/06/30 10:22:43;;;;;;;2.90;1.13;;;;;;;22.70;57.38;101133.34;6233270;28;21127;-66
2023/06/30 10:26:07;;;;;;;1.77;0.90;;;;;;;22.85;57.03;101139.50;6235038;28;20235;-67
2023/06/30 10:29:30;;;;;;;2.33;0.95;;;;;;;22.41;56.55;101141.91;6256927;28;20327;-66
2023/06/30 10:32:51;;;;;;;0.70;0.70;;;;;;;22.92;56.45;101143.13;6243065;28;20228;-67
2023/06/30 10:36:13;;;;;;;2.25;0.63;;;;;;;22.79;55.49;101139.50;6230898;28;20252;-68
2023/06/30 10:39:35;;;;;;;1.92;0.60;;;;;;;22.55;56.80;101138.13;6238954;28;20237;-67
2023/06/30 10:42:57;;;;;;;1.77;1.00;;;;;;;22.52;56.37;101140.47;6255482;28;20236;-67
2023/06/30 10:46:19;;;;;;;3.60;1.60;;;;;;;22.74;56.45;101136.50;6232588;28;20243;-66
2023/06/30 10:49:42;;;;;;;1.55;1.10;;;;;;;23.21;56.12;101132.75;6237367;28;20221;-66
2023/06/30 10:53:07;;;;;;;2.20;1.02;;;;;;;23.37;55.82;101135.94;6240240;28;20315;-66
2023/06/30 10:56:28;;;;;;;2.25;1.48;;;;;;;23.85;54.61;101125.47;6235274;28;20299;-67
2023/06/30 11:00:05;;;;;;;1.75;0.88;;;;;;;24.73;53.11;101121.91;6241038;28;20594;-67
2023/06/30 11:03:27;;;;;;;2.13;1.30;;;;;;;24.94;51.58;101120.72;6236510;28;20601;-67
2023/06/30 11:07:02;;;;;;;1.02;0.80;;;;;;;25.19;51.54;101121.56;6238804;28;20827;-68
2023/06/30 11:10:28;;;;;;;0.90;0.73;;;;;;;25.26;50.41;101120.44;6225868;28;20652;-68
2023/06/30 11:13:49;;;;;;;2.65;0.85;;;;;;;23.42;51.68;101116.91;6243553;28;20232;-68
2023/06/30 11:17:12;;;;;;;2.58;1.10;;;;;;;23.98;50.96;101113.56;6241852;28;20305;-67
2023/06/30 11:20:34;;;;;;;2.40;1.13;;;;;;;24.46;50.11;101109.34;6224084;28;20267;-67
2023/06/30 11:23:58;;;;;;;2.60;0.88;;;;;;;25.03;49.85;101100.88;6246867;28;20224;-67
2023/06/30 11:27:19;;;;;;;2.70;0.65;;;;;;;25.21;49.29;101091.81;6226581;28;20231;-68
2023/06/30 11:30:41;;;;;;;1.08;0.88;;;;;;;25.07;48.92;101095.78;6217436;28;20233;-67
2023/06/30 11:34:02;;;;;;;2.60;1.17;;;;;;;24.51;49.79;101093.00;6235354;28;20252;-67
2023/06/30 11:37:26;;;;;;;1.63;0.90;;;;;;;23.89;50.33;101098.34;6228294;28;20551;-68
2023/06/30 11:40:48;;;;;;;1.25;0.80;;;;;;;24.68;51.32;101096.88;6229496;28;20458;-68
2023/06/30 11:44:08;;;;;;;4.90;1.17;;;;;;;25.46;50.89;101094.59;6242052;28;20232;-68
2023/06/30 11:47:29;;;;;;;1.58;1.05;;;;;;;26.11;49.66;101088.34;6250115;28;20235;-66
2023/06/30 11:50:50;;;;;;;1.60;1.10;;;;;;;26.32;47.75;101082.31;6257461;28;20226;-65
2023/06/30 11:54:14;;;;;;;1.92;1.23;;;;;;;25.72;47.57;101086.84;6264871;28;20228;-68
2023/06/30 11:57:36;;;;;;;1.42;1.08;;;;;;;25.41;47.37;101067.66;6242434;28;20253;-67
2023/06/30 12:00:57;;;;;;;6.38;1.13;;;;;;;25.85;48.02;101074.81;6246252;28;21334;-67
2023/06/30 12:04:34;;;;;;;2.45;0.90;;;;;;;26.04;47.35;101065.41;6257639;28;20231;-67
2023/06/30 12:07:56;;;;;;;1.85;1.10;;;;;;;25.27;44.08;101066.06;6213777;28;20790;-67
2023/06/30 12:11:19;;;;;;;0.68;0.68;;;;;;;23.26;45.62;101055.94;6206299;28;20802;-68
2023/06/30 12:14:43;;;;;;;1.13;0.90;;;;;;;23.28;47.52;101051.88;6219482;28;20232;-68
2023/06/30 12:18:05;;;;;;;2.40;1.10;;;;;;;23.39;46.94;101053.16;6222252;28;20579;-67
2023/06/30 12:21:25;;;;;;;1.88;0.70;;;;;;;23.89;46.74;101040.50;6215727;28;21008;-67
2023/06/30 12:24:54;;;;;;;3.00;1.02;;;;;;;24.72;46.25;101048.47;6228936;28;20240;-68
2023/06/30 12:28:17;;;;;;;2.90;1.42;;;;;;;25.19;46.36;101039.63;6231346;28;20269;-66
2023/06/30 12:31:41;;;;;;;2.40;0.57;;;;;;;24.06;46.19;101036.22;6239928;28;20534;-67
2023/06/30 12:35:03;;;;;;;1.30;1.20;;;;;;;24.85;46.66;101036.53;6234909;28;20228;-67
2023/06/30 12:38:24;;;;;;;1.88;0.73;;;;;;;25.30;44.77;101035.25;6229845;28;20237;-67
2023/06/30 12:41:46;;;;;;;0.75;0.70;;;;;;;26.27;44.81;101020.47;6233661;28;20240;-67
2023/06/30 12:45:10;;;;;;;0.60;0.55;;;;;;;26.65;44.13;101016.28;6236772;28;20231;-68
2023/06/30 12:48:31;;;;;;;0.73;0.70;;;;;;;25.30;43.22;101018.69;6218261;28;20309;-69
2023/06/30 12:51:52;;;;;;;0.93;0.90;;;;;;;25.42;43.45;101022.41;6235793;28;20222;-68
2023/06/30 12:55:14;;;;;;;1.65;0.50;;;;;;;25.09;44.42;101016.38;6236147;28;20229;-69
2023/06/30 12:58:34;;;;;;;0.73;0.73;;;;;;;25.34;45.68;101023.53;6250913;28;20224;-69
2023/06/30 13:01:57;;;;;;;2.47;1.00;;;;;;;25.12;45.55;101021.41;6223327;28;20894;-68
2023/06/30 13:05:18;;;;;;;2.28;0.98;;;;;;;24.05;46.38;101007.84;6213142;28;20237;-68
2023/06/30 13:08:39;;;;;;;0.88;0.52;;;;;;;23.80;46.93;101006.88;6208213;28;20228;-67
2023/06/30 13:12:00;;;;;;;0.73;0.50;;;;;;;23.85;48.23;101012.56;6221509;28;20255;-67
2023/06/30 13:15:21;;;;;;;1.20;1.13;;;;;;;23.53;48.64;101024.56;6212242;28;20630;-67
2023/06/30 13:18:43;;;;;;;2.92;1.10;;;;;;;23.67;49.01;101013.28;6226797;28;20240;-68
2023/06/30 13:22:04;;;;;;;0.90;0.73;;;;;;;23.73;49.42;101017.91;6224797;28;20236;-66
2023/06/30 13:25:25;;;;;;;1.10;0.70;;;;;;;23.66;49.00;101017.09;6202737;28;20232;-68
2023/06/30 13:28:46;;;;;;;2.40;1.00;;;;;;;23.64;48.31;101013.72;6229544;28;20248;-66
2023/06/30 13:32:08;;;;;;;2.58;1.13;;;;;;;23.76;47.88;101011.97;6228693;28;20452;-65
2023/06/30 13:35:30;;;;;;;1.48;1.00;;;;;;;24.29;47.70;101014.44;6202907;28;20233;-67
2023/06/30 13:38:51;;;;;;;2.17;1.05;;;;;;;24.68;47.40;101024.34;6229573;28;20351;-68
2023/06/30 13:42:12;;;;;;;1.58;1.08;;;;;;;24.62;47.04;101023.31;6238748;28;20232;-68
2023/06/30 13:45:32;;;;;;;2.67;1.15;;;;;;;24.90;46.86;101025.69;6216045;28;20750;-66
2023/06/30 13:48:53;;;;;;;1.77;1.08;;;;;;;24.56;46.98;101021.47;6235941;28;20256;-66
2023/06/30 13:52:15;;;;;;;2.88;1.00;;;;;;;24.35;47.45;101016.31;6226802;28;20684;-67
2023/06/30 13:55:36;;;;;;;5.43;0.93;;;;;;;24.32;47.33;101016.78;6221277;28;20720;-66
2023/06/30 13:58:57;;;;;;;1.05;0.90;;;;;;;25.74;46.04;101009.28;6222079;28;20264;-67
2023/06/30 14:02:18;;;;;;;6.32;1.45;;;;;;;25.36;45.18;101017.78;6227464;28;20363;-67
2023/06/30 14:05:39;;;;;;;1.50;1.10;;;;;;;26.17;45.69;101009.16;6229909;28;21627;-68
2023/06/30 14:09:01;;;;;;;2.67;1.05;;;;;;;26.56;44.73;101000.22;6227553;28;20236;-68
2023/06/30 14:12:22;;;;;;;1.45;1.17;;;;;;;26.40;44.66;101003.69;6255873;28;20235;-68
2023/06/30 14:15:42;;;;;;;1.13;1.02;;;;;;;25.70;45.68;100997.03;6243548;28;20227;-67
2023/06/30 14:19:05;;;;;;;2.63;1.15;;;;;;;25.09;46.97;101005.34;6261199;28;20255;-68
2023/06/30 14:22:27;;;;;;;1.55;1.45;;;;;;;25.07;48.46;100996.44;6246642;28;20676;-67
2023/06/30 14:25:49;;;;;;;11.30;9.82;;;;;;;25.44;47.71;100991.81;6241711;28;20234;-68
2023/06/30 14:29:10;;;;;;;2.00;1.30;;;;;;;24.94;47.06;100991.91;6273513;28;20246;-68
2023/06/30 14:32:31;;;;;;;1.48;1.27;;;;;;;24.63;47.63;100991.09;6258452;28;20223;-70
2023/06/30 14:35:51;;;;;;;2.08;1.30;;;;;;;24.09;49.12;100987.03;6246909;28;20228;-67
2023/06/30 14:39:12;;;;;;;3.33;3.00;;;;;;;24.57;49.16;100990.09;6261282;28;20235;-68
2023/06/30 14:42:34;;;;;;;1.33;1.20;;;;;;;25.28;48.54;100987.72;6271332;28;20231;-68
2023/06/30 14:45:55;;;;;;;1.65;1.50;;;;;;;25.21;48.37;100993.31;6253574;28;20315;-69
2023/06/30 14:49:16;;;;;;;3.70;2.67;;;;;;;24.80;48.66;100983.97;6265271;28;20318;-68
2023/06/30 14:52:37;;;;;;;1.20;1.10;;;;;;;25.13;48.09;100978.97;6273169;28;20227;-68
2023/06/30 14:55:58;;;;;;;2.65;1.45;;;;;;;25.76;47.40;100969.31;6254788;28;20454;-66
2023/06/30 14:59:20;;;;;;;1.52;1.20;;;;;;;26.36;46.59;100980.34;6242960;28;20501;-68
2023/06/30 15:02:41;;;;;;;1.38;1.05;;;;;;;26.57;44.89;100968.75;6256007;28;20236;-67
2023/06/30 15:06:02;;;;;;;1.63;1.00;;;;;;;25.92;46.32;100970.56;6250439;28;20515;-67
2023/06/30 15:09:23;;;;;;;2.72;2.38;;;;;;;25.48;47.11;100971.78;6253457;28;20220;-66
2023/06/30 15:12:44;;;;;;;1.25;1.10;;;;;;;25.40;47.75;100972.06;6264855;28;20232;-67
2023/06/30 15:16:06;;;;;;;1.23;0.90;;;;;;;25.70;47.31;100974.94;6263434;28;20226;-66
2023/06/30 15:19:28;;;;;;;1.88;1.13;;;;;;;25.73;47.00;100971.69;6260924;28;20235;-69
2023/06/30 15:22:49;;;;;;;1.30;0.85;;;;;;;25.52;47.96;100955.59;6257326;28;20554;-67
2023/06/30 15:26:10;;;;;;;3.22;1.27;;;;;;;25.37;47.35;100959.56;6244019;28;20319;-67
2023/06/30 15:29:31;;;;;;;2.67;1.65;;;;;;;25.16;48.09;100965.53;6235402;28;20229;-67
2023/06/30 15:32:56;;;;;;;1.50;1.40;;;;;;;24.43;49.17;100967.28;6228217;28;20574;-67
2023/06/30 15:36:17;;;;;;;1.98;1.02;;;;;;;23.88;49.97;100958.94;6230036;28;20248;-67
2023/06/30 15:39:37;;;;;;;3.13;1.95;;;;;;;24.43;50.16;100959.00;6218899;28;20232;-69